This is the latest recevied weather packets stored in our database for station/object WB3IGR. If no packets are shown the sender has not sent any weather packets the latest 1 day(s).
| Time | Temp. | Humidity | Pressure | Rain* | Wind** | Luminosity | Snow |
|---|---|---|---|---|---|---|---|
| 1777988584 | 21.11° C | 60% | 1012.4 hPa | 0 mm | 2.24 m/s, 255° | 560 W/m² | - |
| 1777988280 | 21.11° C | 60% | 1012.6 hPa | 0 mm | 1.79 m/s, 247° | 540 W/m² | - |
| 1777987977 | 20.56° C | 62% | 1012.8 hPa | 0 mm | 0.89 m/s, 295° | 529 W/m² | - |
| 1777987673 | 20.56° C | 61% | 1012.8 hPa | 0 mm | 2.68 m/s, 341° | 501 W/m² | - |
| 1777987370 | 20° C | 62% | 1012.8 hPa | 0 mm | 1.79 m/s, 217° | 482 W/m² | - |
| 1777987067 | 20° C | 63% | 1012.9 hPa | 0 mm | 1.79 m/s, 344° | 439 W/m² | - |
| 1777986764 | 19.44° C | 62% | 1012.8 hPa | 0 mm | 1.34 m/s, 347° | 427 W/m² | - |
| 1777986462 | 19.44° C | 63% | 1013 hPa | 0 mm | 2.24 m/s, 355° | 409 W/m² | - |
| 1777986160 | 19.44° C | 64% | 1013 hPa | 0 mm | 1.34 m/s, 290° | 391 W/m² | - |
| 1777985857 | 19.44° C | 64% | 1012.7 hPa | 0 mm | 1.34 m/s, 267° | 377 W/m² | - |
| 1777985554 | 19.44° C | 63% | 1012.8 hPa | 0 mm | 2.24 m/s, 319° | 349 W/m² | - |
| 1777985251 | 19.44° C | 63% | 1012.7 hPa | 0 mm | 1.34 m/s, 262° | 341 W/m² | - |
| 1777984948 | 19.44° C | 64% | 1012.9 hPa | 0 mm | 2.24 m/s, 327° | 322 W/m² | - |
| 1777984643 | 18.89° C | 64% | 1012.7 hPa | 0 mm | 1.34 m/s, 256° | 301 W/m² | - |
| 1777984340 | 18.89° C | 65% | 1012.7 hPa | 0 mm | 1.79 m/s, 286° | 289 W/m² | - |
| 1777984037 | 18.89° C | 64% | 1012.8 hPa | 0 mm | 1.79 m/s, 322° | 271 W/m² | - |
| 1777983734 | 18.33° C | 65% | 1012.6 hPa | 0 mm | 1.79 m/s, 311° | 259 W/m² | - |
| 1777983431 | 18.33° C | 65% | 1012.5 hPa | 0 mm | 4.02 m/s, 255° | 192 W/m² | - |
| 1777983127 | 17.78° C | 66% | 1012.5 hPa | 0 mm | 1.34 m/s, 0° | 95 W/m² | - |
| 1777982824 | 18.33° C | 66% | 1012.5 hPa | 0 mm | 2.24 m/s, 298° | 240 W/m² | - |
| 1777982519 | 18.33° C | 67% | 1012.3 hPa | 0 mm | 0.45 m/s, 224° | 239 W/m² | - |
| 1777982213 | 18.33° C | 66% | 1012.5 hPa | 0 mm | 2.24 m/s, 237° | 225 W/m² | - |
| 1777981911 | 17.78° C | 68% | 1012.5 hPa | 0 mm | 1.79 m/s, 307° | 186 W/m² | - |
| 1777981608 | 17.78° C | 69% | 1012.4 hPa | 0 mm | 0.89 m/s, 224° | 160 W/m² | - |
| 1777981304 | 17.22° C | 69% | 1012.2 hPa | 0 mm | 0.89 m/s, 292° | 143 W/m² | - |
* Rain latest hour (hover to see other rain measurements)
** Current wind speed in m/s (hover to see current wind gust speed)